sensor_id;sensor_type;location;lat;lon;timestamp;temperature;humidity
12436;DHT22;6282;51.440;6.938;2023-02-28T00:01:19;0.50;99.90
12436;DHT22;6282;51.440;6.938;2023-02-28T00:03:45;0.40;99.90
12436;DHT22;6282;51.440;6.938;2023-02-28T00:06:14;0.30;99.90
12436;DHT22;6282;51.440;6.938;2023-02-28T00:08:41;0.50;99.90
12436;DHT22;6282;51.440;6.938;2023-02-28T00:11:10;0.30;99.90
12436;DHT22;6282;51.440;6.938;2023-02-28T00:13:40;0.40;99.90
12436;DHT22;6282;51.440;6.938;2023-02-28T00:16:10;0.40;99.90
12436;DHT22;6282;51.440;6.938;2023-02-28T00:18:37;0.80;99.90
12436;DHT22;6282;51.440;6.938;2023-02-28T00:21:04;0.60;99.90
12436;DHT22;6282;51.440;6.938;2023-02-28T00:23:33;0.70;99.90
12436;DHT22;6282;51.440;6.938;2023-02-28T00:26:00;0.70;99.90
12436;DHT22;6282;51.440;6.938;2023-02-28T00:28:26;0.50;99.90
12436;DHT22;6282;51.440;6.938;2023-02-28T00:30:53;0.40;99.90
12436;DHT22;6282;51.440;6.938;2023-02-28T00:33:21;0.40;99.90
12436;DHT22;6282;51.440;6.938;2023-02-28T00:35:47;0.40;99.90
12436;DHT22;6282;51.440;6.938;2023-02-28T00:38:15;0.40;99.90
12436;DHT22;6282;51.440;6.938;2023-02-28T00:40:43;0.60;99.90
12436;DHT22;6282;51.440;6.938;2023-02-28T00:43:10;0.60;99.90
12436;DHT22;6282;51.440;6.938;2023-02-28T00:45:37;0.40;99.90
12436;DHT22;6282;51.440;6.938;2023-02-28T00:48:04;0.50;99.90
12436;DHT22;6282;51.440;6.938;2023-02-28T00:50:31;0.30;99.90
12436;DHT22;6282;51.440;6.938;2023-02-28T00:52:58;0.40;99.90
12436;DHT22;6282;51.440;6.938;2023-02-28T00:55:25;0.10;99.90
12436;DHT22;6282;51.440;6.938;2023-02-28T00:57:53;0.10;99.90
12436;DHT22;6282;51.440;6.938;2023-02-28T01:00:20;0.20;99.90
12436;DHT22;6282;51.440;6.938;2023-02-28T01:02:47;0.20;99.90
12436;DHT22;6282;51.440;6.938;2023-02-28T01:05:14;0.40;99.90
12436;DHT22;6282;51.440;6.938;2023-02-28T01:07:41;0.10;99.90
12436;DHT22;6282;51.440;6.938;2023-02-28T01:10:09;-0.10;99.90
12436;DHT22;6282;51.440;6.938;2023-02-28T01:12:36;0.20;99.90
12436;DHT22;6282;51.440;6.938;2023-02-28T01:15:05;0.20;99.90
12436;DHT22;6282;51.440;6.938;2023-02-28T01:17:32;0.20;99.90
12436;DHT22;6282;51.440;6.938;2023-02-28T01:19:59;0.30;99.90
12436;DHT22;6282;51.440;6.938;2023-02-28T01:22:26;0.20;99.90
12436;DHT22;6282;51.440;6.938;2023-02-28T01:24:53;0.10;99.90
12436;DHT22;6282;51.440;6.938;2023-02-28T01:27:20;0.20;99.90
12436;DHT22;6282;51.440;6.938;2023-02-28T01:29:47;0.20;99.90
12436;DHT22;6282;51.440;6.938;2023-02-28T01:32:15;0.00;99.90
12436;DHT22;6282;51.440;6.938;2023-02-28T01:34:42;0.00;99.90
12436;DHT22;6282;51.440;6.938;2023-02-28T01:37:09;0.10;99.90
12436;DHT22;6282;51.440;6.938;2023-02-28T01:39:36;0.10;99.90
12436;DHT22;6282;51.440;6.938;2023-02-28T01:42:03;0.30;99.90
12436;DHT22;6282;51.440;6.938;2023-02-28T01:44:57;0.00;99.90
12436;DHT22;6282;51.440;6.938;2023-02-28T01:47:28;-0.10;99.90
12436;DHT22;6282;51.440;6.938;2023-02-28T01:49:55;0.00;99.90
12436;DHT22;6282;51.440;6.938;2023-02-28T01:52:23;-0.20;99.90
12436;DHT22;6282;51.440;6.938;2023-02-28T01:54:53;-0.20;99.90
12436;DHT22;6282;51.440;6.938;2023-02-28T01:57:23;-0.20;99.90
12436;DHT22;6282;51.440;6.938;2023-02-28T01:59:54;-0.30;99.90
12436;DHT22;6282;51.440;6.938;2023-02-28T02:02:26;-0.30;99.90
12436;DHT22;6282;51.440;6.938;2023-02-28T02:04:56;-0.20;99.90
12436;DHT22;6282;51.440;6.938;2023-02-28T02:07:29;-0.30;99.90
12436;DHT22;6282;51.440;6.938;2023-02-28T02:10:04;-0.30;99.90
12436;DHT22;6282;51.440;6.938;2023-02-28T02:12:43;-0.20;99.90
12436;DHT22;6282;51.440;6.938;2023-02-28T02:15:20;-0.20;99.90
12436;DHT22;6282;51.440;6.938;2023-02-28T02:17:53;-0.30;99.90
12436;DHT22;6282;51.440;6.938;2023-02-28T02:23:39;-0.50;99.90
12436;DHT22;6282;51.440;6.938;2023-02-28T02:26:30;-0.20;99.90
12436;DHT22;6282;51.440;6.938;2023-02-28T02:29:19;-0.50;99.90
12436;DHT22;6282;51.440;6.938;2023-02-28T02:34:51;-0.60;99.90
12436;DHT22;6282;51.440;6.938;2023-02-28T02:37:25;-0.70;99.90
12436;DHT22;6282;51.440;6.938;2023-02-28T02:40:02;-0.70;99.90
12436;DHT22;6282;51.440;6.938;2023-02-28T02:42:36;-0.60;99.90
12436;DHT22;6282;51.440;6.938;2023-02-28T02:45:08;-0.70;99.90
12436;DHT22;6282;51.440;6.938;2023-02-28T02:47:37;-0.50;99.90
12436;DHT22;6282;51.440;6.938;2023-02-28T02:50:11;-0.50;99.90
12436;DHT22;6282;51.440;6.938;2023-02-28T02:52:42;-0.60;99.90
12436;DHT22;6282;51.440;6.938;2023-02-28T02:55:12;-0.70;99.90
12436;DHT22;6282;51.440;6.938;2023-02-28T02:57:44;-0.70;99.90
12436;DHT22;6282;51.440;6.938;2023-02-28T03:00:14;-0.70;99.90
12436;DHT22;6282;51.440;6.938;2023-02-28T03:02:44;-0.70;99.90
12436;DHT22;6282;51.440;6.938;2023-02-28T03:05:19;-0.50;99.90
12436;DHT22;6282;51.440;6.938;2023-02-28T03:07:46;-0.70;99.90
12436;DHT22;6282;51.440;6.938;2023-02-28T03:10:29;-0.70;99.90
12436;DHT22;6282;51.440;6.938;2023-02-28T03:13:05;-0.70;99.90
12436;DHT22;6282;51.440;6.938;2023-02-28T03:15:37;-0.40;99.90
12436;DHT22;6282;51.440;6.938;2023-02-28T03:18:10;-0.60;99.90
12436;DHT22;6282;51.440;6.938;2023-02-28T03:20:47;-0.40;99.90
12436;DHT22;6282;51.440;6.938;2023-02-28T03:23:20;-0.70;99.90
12436;DHT22;6282;51.440;6.938;2023-02-28T03:25:56;-0.70;99.90
12436;DHT22;6282;51.440;6.938;2023-02-28T03:28:31;-0.70;99.90
12436;DHT22;6282;51.440;6.938;2023-02-28T03:31:02;-0.70;99.90
12436;DHT22;6282;51.440;6.938;2023-02-28T03:33:33;-0.90;99.90
12436;DHT22;6282;51.440;6.938;2023-02-28T03:36:07;-0.80;99.90
12436;DHT22;6282;51.440;6.938;2023-02-28T03:38:39;-0.90;99.90
12436;DHT22;6282;51.440;6.938;2023-02-28T03:41:12;-0.70;99.90
12436;DHT22;6282;51.440;6.938;2023-02-28T03:43:43;-0.80;99.90
12436;DHT22;6282;51.440;6.938;2023-02-28T03:46:14;-0.60;99.90
12436;DHT22;6282;51.440;6.938;2023-02-28T03:48:47;-0.70;99.90
12436;DHT22;6282;51.440;6.938;2023-02-28T03:51:19;-0.80;99.90
12436;DHT22;6282;51.440;6.938;2023-02-28T03:53:50;-0.50;99.90
12436;DHT22;6282;51.440;6.938;2023-02-28T03:56:21;-0.60;99.90
12436;DHT22;6282;51.440;6.938;2023-02-28T03:58:53;-0.50;99.90
12436;DHT22;6282;51.440;6.938;2023-02-28T04:01:23;-0.30;99.90
12436;DHT22;6282;51.440;6.938;2023-02-28T04:03:50;-0.60;99.90
12436;DHT22;6282;51.440;6.938;2023-02-28T04:06:20;-0.70;99.90
12436;DHT22;6282;51.440;6.938;2023-02-28T04:08:48;-0.90;99.90
12436;DHT22;6282;51.440;6.938;2023-02-28T04:11:21;-0.70;99.90
12436;DHT22;6282;51.440;6.938;2023-02-28T04:13:49;-0.50;99.90
12436;DHT22;6282;51.440;6.938;2023-02-28T04:16:16;-0.40;99.90
12436;DHT22;6282;51.440;6.938;2023-02-28T04:18:43;-0.70;99.90
12436;DHT22;6282;51.440;6.938;2023-02-28T04:21:11;-0.80;99.90
12436;DHT22;6282;51.440;6.938;2023-02-28T04:23:39;-0.70;99.90
12436;DHT22;6282;51.440;6.938;2023-02-28T04:26:06;-0.60;99.90
12436;DHT22;6282;51.440;6.938;2023-02-28T04:28:33;-0.90;99.90
12436;DHT22;6282;51.440;6.938;2023-02-28T04:31:03;-0.80;99.90
12436;DHT22;6282;51.440;6.938;2023-02-28T04:33:31;-1.00;99.90
12436;DHT22;6282;51.440;6.938;2023-02-28T04:35:59;-0.90;99.90
12436;DHT22;6282;51.440;6.938;2023-02-28T04:38:26;-1.10;99.90
12436;DHT22;6282;51.440;6.938;2023-02-28T04:40:57;-0.90;99.90
12436;DHT22;6282;51.440;6.938;2023-02-28T04:43:24;-1.10;99.90
12436;DHT22;6282;51.440;6.938;2023-02-28T04:45:50;-1.10;99.90
12436;DHT22;6282;51.440;6.938;2023-02-28T04:48:17;-1.10;99.90
12436;DHT22;6282;51.440;6.938;2023-02-28T04:50:44;-1.20;99.90
12436;DHT22;6282;51.440;6.938;2023-02-28T04:53:11;-1.20;99.90
12436;DHT22;6282;51.440;6.938;2023-02-28T04:55:38;-1.20;99.90
12436;DHT22;6282;51.440;6.938;2023-02-28T04:58:07;-1.30;99.90
12436;DHT22;6282;51.440;6.938;2023-02-28T05:00:34;-1.30;99.90
12436;DHT22;6282;51.440;6.938;2023-02-28T05:03:01;-1.10;99.90
12436;DHT22;6282;51.440;6.938;2023-02-28T05:05:28;-1.10;99.90
12436;DHT22;6282;51.440;6.938;2023-02-28T05:07:55;-0.60;99.90
12436;DHT22;6282;51.440;6.938;2023-02-28T05:10:21;-0.90;99.90
12436;DHT22;6282;51.440;6.938;2023-02-28T05:12:48;-1.10;99.90
12436;DHT22;6282;51.440;6.938;2023-02-28T05:15:17;-0.90;99.90
12436;DHT22;6282;51.440;6.938;2023-02-28T05:17:44;-1.00;99.90
12436;DHT22;6282;51.440;6.938;2023-02-28T05:20:12;-1.10;99.90
12436;DHT22;6282;51.440;6.938;2023-02-28T05:22:40;-0.90;99.90
12436;DHT22;6282;51.440;6.938;2023-02-28T05:25:08;-1.00;99.90
12436;DHT22;6282;51.440;6.938;2023-02-28T05:27:35;-1.10;99.90
12436;DHT22;6282;51.440;6.938;2023-02-28T05:30:02;-1.00;99.90
12436;DHT22;6282;51.440;6.938;2023-02-28T05:32:31;-1.10;99.90
12436;DHT22;6282;51.440;6.938;2023-02-28T05:34:58;-1.00;99.90
12436;DHT22;6282;51.440;6.938;2023-02-28T05:37:24;-1.10;99.90
12436;DHT22;6282;51.440;6.938;2023-02-28T05:39:51;-0.90;99.90
12436;DHT22;6282;51.440;6.938;2023-02-28T05:42:18;-0.90;99.90
12436;DHT22;6282;51.440;6.938;2023-02-28T05:44:45;-0.80;99.90
12436;DHT22;6282;51.440;6.938;2023-02-28T05:47:12;-1.00;99.90
12436;DHT22;6282;51.440;6.938;2023-02-28T05:49:42;-0.90;99.90
12436;DHT22;6282;51.440;6.938;2023-02-28T05:52:09;-1.10;99.90
12436;DHT22;6282;51.440;6.938;2023-02-28T05:54:36;-1.20;99.90
12436;DHT22;6282;51.440;6.938;2023-02-28T05:57:03;-1.10;99.90
12436;DHT22;6282;51.440;6.938;2023-02-28T05:59:29;-1.10;99.90
12436;DHT22;6282;51.440;6.938;2023-02-28T06:01:56;-1.20;99.90
12436;DHT22;6282;51.440;6.938;2023-02-28T06:04:23;-1.20;99.90
12436;DHT22;6282;51.440;6.938;2023-02-28T06:06:51;-1.00;99.90
12436;DHT22;6282;51.440;6.938;2023-02-28T06:09:18;-0.90;99.90
12436;DHT22;6282;51.440;6.938;2023-02-28T06:11:45;-1.30;99.90
12436;DHT22;6282;51.440;6.938;2023-02-28T06:14:14;-1.30;99.90
12436;DHT22;6282;51.440;6.938;2023-02-28T06:16:42;-1.50;99.90
12436;DHT22;6282;51.440;6.938;2023-02-28T06:19:09;-1.30;99.90
12436;DHT22;6282;51.440;6.938;2023-02-28T06:21:37;-1.20;99.90
12436;DHT22;6282;51.440;6.938;2023-02-28T06:24:07;-1.30;99.90
12436;DHT22;6282;51.440;6.938;2023-02-28T06:26:34;-1.40;99.90
12436;DHT22;6282;51.440;6.938;2023-02-28T06:29:01;-1.50;99.90
12436;DHT22;6282;51.440;6.938;2023-02-28T06:31:28;-1.50;99.90
12436;DHT22;6282;51.440;6.938;2023-02-28T06:33:55;-1.50;99.90
12436;DHT22;6282;51.440;6.938;2023-02-28T06:36:22;-1.40;99.90
12436;DHT22;6282;51.440;6.938;2023-02-28T06:38:49;-1.30;99.90
12436;DHT22;6282;51.440;6.938;2023-02-28T06:41:22;-1.20;99.90
12436;DHT22;6282;51.440;6.938;2023-02-28T06:43:49;-1.10;99.90
12436;DHT22;6282;51.440;6.938;2023-02-28T06:46:16;-1.10;99.90
12436;DHT22;6282;51.440;6.938;2023-02-28T06:48:43;-0.90;99.90
12436;DHT22;6282;51.440;6.938;2023-02-28T06:51:12;-1.10;99.90
12436;DHT22;6282;51.440;6.938;2023-02-28T06:53:40;-0.90;99.90
12436;DHT22;6282;51.440;6.938;2023-02-28T06:56:08;-0.70;99.90
12436;DHT22;6282;51.440;6.938;2023-02-28T06:58:37;-0.10;99.90
12436;DHT22;6282;51.440;6.938;2023-02-28T07:01:05;0.20;99.90
12436;DHT22;6282;51.440;6.938;2023-02-28T07:03:32;-0.30;99.90
12436;DHT22;6282;51.440;6.938;2023-02-28T07:05:59;-0.30;99.90
12436;DHT22;6282;51.440;6.938;2023-02-28T07:08:26;-0.40;99.90
12436;DHT22;6282;51.440;6.938;2023-02-28T07:10:53;-0.40;99.90
12436;DHT22;6282;51.440;6.938;2023-02-28T07:13:20;-0.50;99.90
12436;DHT22;6282;51.440;6.938;2023-02-28T07:15:55;-0.50;99.90
12436;DHT22;6282;51.440;6.938;2023-02-28T07:18:22;-0.10;99.90
12436;DHT22;6282;51.440;6.938;2023-02-28T07:20:49;-0.20;99.90
12436;DHT22;6282;51.440;6.938;2023-02-28T07:23:16;-0.10;99.90
12436;DHT22;6282;51.440;6.938;2023-02-28T07:25:43;0.20;99.90
12436;DHT22;6282;51.440;6.938;2023-02-28T07:28:11;0.10;99.90
12436;DHT22;6282;51.440;6.938;2023-02-28T07:30:38;0.00;99.90
12436;DHT22;6282;51.440;6.938;2023-02-28T07:33:06;0.20;99.90
12436;DHT22;6282;51.440;6.938;2023-02-28T07:35:33;0.10;99.90
12436;DHT22;6282;51.440;6.938;2023-02-28T07:38:01;0.40;99.90
12436;DHT22;6282;51.440;6.938;2023-02-28T07:40:30;1.00;99.90
12436;DHT22;6282;51.440;6.938;2023-02-28T07:42:59;2.00;99.90
12436;DHT22;6282;51.440;6.938;2023-02-28T07:45:26;3.40;99.90
12436;DHT22;6282;51.440;6.938;2023-02-28T07:47:54;4.30;99.90
12436;DHT22;6282;51.440;6.938;2023-02-28T07:50:23;5.90;99.90
12436;DHT22;6282;51.440;6.938;2023-02-28T07:52:50;7.30;99.90
12436;DHT22;6282;51.440;6.938;2023-02-28T07:55:17;8.00;99.90
12436;DHT22;6282;51.440;6.938;2023-02-28T07:57:44;8.60;99.90
12436;DHT22;6282;51.440;6.938;2023-02-28T08:00:12;9.00;99.90
12436;DHT22;6282;51.440;6.938;2023-02-28T08:02:39;8.90;99.90
12436;DHT22;6282;51.440;6.938;2023-02-28T08:05:07;9.00;99.90
12436;DHT22;6282;51.440;6.938;2023-02-28T08:07:35;8.50;99.90
12436;DHT22;6282;51.440;6.938;2023-02-28T08:10:02;6.40;99.90
12436;DHT22;6282;51.440;6.938;2023-02-28T08:12:31;5.10;99.90
12436;DHT22;6282;51.440;6.938;2023-02-28T08:14:57;4.70;99.90
12436;DHT22;6282;51.440;6.938;2023-02-28T08:17:24;3.90;99.90
12436;DHT22;6282;51.440;6.938;2023-02-28T08:19:51;4.60;99.90
12436;DHT22;6282;51.440;6.938;2023-02-28T08:22:18;5.10;99.90
12436;DHT22;6282;51.440;6.938;2023-02-28T08:24:46;4.00;99.90
12436;DHT22;6282;51.440;6.938;2023-02-28T08:27:13;5.20;99.90
12436;DHT22;6282;51.440;6.938;2023-02-28T08:29:40;7.60;99.90
12436;DHT22;6282;51.440;6.938;2023-02-28T08:32:07;8.10;99.90
12436;DHT22;6282;51.440;6.938;2023-02-28T08:34:34;5.00;99.90
12436;DHT22;6282;51.440;6.938;2023-02-28T08:37:01;3.30;99.90
12436;DHT22;6282;51.440;6.938;2023-02-28T08:39:28;5.40;99.90
12436;DHT22;6282;51.440;6.938;2023-02-28T08:41:56;8.30;99.90
12436;DHT22;6282;51.440;6.938;2023-02-28T08:44:23;8.50;99.90
12436;DHT22;6282;51.440;6.938;2023-02-28T08:46:50;7.20;99.90
12436;DHT22;6282;51.440;6.938;2023-02-28T08:49:17;8.30;99.90
12436;DHT22;6282;51.440;6.938;2023-02-28T08:51:44;9.20;99.90
12436;DHT22;6282;51.440;6.938;2023-02-28T08:54:11;8.30;99.90
12436;DHT22;6282;51.440;6.938;2023-02-28T08:56:38;8.30;99.90
12436;DHT22;6282;51.440;6.938;2023-02-28T08:59:09;8.20;99.90
12436;DHT22;6282;51.440;6.938;2023-02-28T09:01:36;8.80;99.90
12436;DHT22;6282;51.440;6.938;2023-02-28T09:06:32;8.40;99.90
12436;DHT22;6282;51.440;6.938;2023-02-28T09:08:59;8.70;99.90
12436;DHT22;6282;51.440;6.938;2023-02-28T09:11:27;9.00;99.90
12436;DHT22;6282;51.440;6.938;2023-02-28T09:13:54;7.50;99.90
12436;DHT22;6282;51.440;6.938;2023-02-28T09:16:23;8.00;99.90
12436;DHT22;6282;51.440;6.938;2023-02-28T09:18:50;6.90;99.90
12436;DHT22;6282;51.440;6.938;2023-02-28T09:21:18;5.10;99.90
12436;DHT22;6282;51.440;6.938;2023-02-28T09:23:48;4.80;99.90
12436;DHT22;6282;51.440;6.938;2023-02-28T09:26:17;4.90;99.90
12436;DHT22;6282;51.440;6.938;2023-02-28T09:28:44;4.60;99.90
12436;DHT22;6282;51.440;6.938;2023-02-28T09:31:12;4.40;99.90
12436;DHT22;6282;51.440;6.938;2023-02-28T09:33:41;4.40;99.90
12436;DHT22;6282;51.440;6.938;2023-02-28T09:36:08;4.50;99.90
12436;DHT22;6282;51.440;6.938;2023-02-28T09:41:04;4.40;99.90
12436;DHT22;6282;51.440;6.938;2023-02-28T09:43:38;4.30;99.90
12436;DHT22;6282;51.440;6.938;2023-02-28T09:48:44;3.90;99.90
12436;DHT22;6282;51.440;6.938;2023-02-28T09:51:16;4.00;99.90
12436;DHT22;6282;51.440;6.938;2023-02-28T09:56:20;3.80;99.90
12436;DHT22;6282;51.440;6.938;2023-02-28T10:03:56;4.20;99.90
12436;DHT22;6282;51.440;6.938;2023-02-28T10:06:28;4.10;99.90
12436;DHT22;6282;51.440;6.938;2023-02-28T10:08:58;4.20;99.90
12436;DHT22;6282;51.440;6.938;2023-02-28T10:13:58;3.70;99.90
12436;DHT22;6282;51.440;6.938;2023-02-28T10:16:31;4.00;99.90
12436;DHT22;6282;51.440;6.938;2023-02-28T10:19:04;4.10;99.90
12436;DHT22;6282;51.440;6.938;2023-02-28T10:21:36;3.90;99.90
12436;DHT22;6282;51.440;6.938;2023-02-28T10:24:12;3.80;99.90
12436;DHT22;6282;51.440;6.938;2023-02-28T10:26:45;4.10;99.90
12436;DHT22;6282;51.440;6.938;2023-02-28T10:34:12;4.20;99.90
12436;DHT22;6282;51.440;6.938;2023-02-28T10:36:40;4.10;99.90
12436;DHT22;6282;51.440;6.938;2023-02-28T10:39:38;4.50;99.90
12436;DHT22;6282;51.440;6.938;2023-02-28T10:47:14;4.50;99.90
12436;DHT22;6282;51.440;6.938;2023-02-28T10:49:49;4.20;99.90
12436;DHT22;6282;51.440;6.938;2023-02-28T10:55:15;4.50;99.90
12436;DHT22;6282;51.440;6.938;2023-02-28T11:00:14;4.80;99.90
12436;DHT22;6282;51.440;6.938;2023-02-28T11:05:27;4.80;99.90
12436;DHT22;6282;51.440;6.938;2023-02-28T11:07:56;4.50;99.90
12436;DHT22;6282;51.440;6.938;2023-02-28T11:10:26;4.60;99.90
12436;DHT22;6282;51.440;6.938;2023-02-28T11:12:55;3.90;99.90
12436;DHT22;6282;51.440;6.938;2023-02-28T11:15:24;4.00;99.90
12436;DHT22;6282;51.440;6.938;2023-02-28T11:17:57;3.60;99.90
12436;DHT22;6282;51.440;6.938;2023-02-28T11:20:30;4.20;99.90
12436;DHT22;6282;51.440;6.938;2023-02-28T11:22:59;4.20;99.90
12436;DHT22;6282;51.440;6.938;2023-02-28T11:25:30;4.00;99.90
12436;DHT22;6282;51.440;6.938;2023-02-28T11:28:00;4.30;99.90
12436;DHT22;6282;51.440;6.938;2023-02-28T11:30:31;4.50;99.90
12436;DHT22;6282;51.440;6.938;2023-02-28T11:35:30;4.70;99.90
12436;DHT22;6282;51.440;6.938;2023-02-28T11:43:13;4.60;99.90
12436;DHT22;6282;51.440;6.938;2023-02-28T11:46:06;4.60;99.90
12436;DHT22;6282;51.440;6.938;2023-02-28T11:48:43;4.80;99.90
12436;DHT22;6282;51.440;6.938;2023-02-28T11:51:18;4.60;99.90
12436;DHT22;6282;51.440;6.938;2023-02-28T11:53:57;4.50;99.90
12436;DHT22;6282;51.440;6.938;2023-02-28T11:56:32;4.80;99.90
12436;DHT22;6282;51.440;6.938;2023-02-28T11:59:14;4.70;99.90
12436;DHT22;6282;51.440;6.938;2023-02-28T12:02:01;4.90;99.90
12436;DHT22;6282;51.440;6.938;2023-02-28T12:04:39;4.80;99.90
12436;DHT22;6282;51.440;6.938;2023-02-28T12:07:15;4.60;99.90
12436;DHT22;6282;51.440;6.938;2023-02-28T12:09:51;4.70;99.90
12436;DHT22;6282;51.440;6.938;2023-02-28T12:12:33;4.70;99.90
12436;DHT22;6282;51.440;6.938;2023-02-28T12:15:21;4.70;99.90
12436;DHT22;6282;51.440;6.938;2023-02-28T12:18:08;5.50;99.90
12436;DHT22;6282;51.440;6.938;2023-02-28T12:20:44;5.30;99.90
12436;DHT22;6282;51.440;6.938;2023-02-28T12:23:40;4.80;99.90
12436;DHT22;6282;51.440;6.938;2023-02-28T12:26:15;5.30;99.90
12436;DHT22;6282;51.440;6.938;2023-02-28T12:28:49;5.50;99.90
12436;DHT22;6282;51.440;6.938;2023-02-28T12:31:19;5.70;99.90
12436;DHT22;6282;51.440;6.938;2023-02-28T12:33:51;5.10;99.90
12436;DHT22;6282;51.440;6.938;2023-02-28T12:38:55;5.30;99.90
12436;DHT22;6282;51.440;6.938;2023-02-28T12:41:29;4.90;99.90
12436;DHT22;6282;51.440;6.938;2023-02-28T12:44:03;5.00;99.90
12436;DHT22;6282;51.440;6.938;2023-02-28T12:46:35;5.40;99.90
12436;DHT22;6282;51.440;6.938;2023-02-28T12:49:08;5.30;99.90
12436;DHT22;6282;51.440;6.938;2023-02-28T12:51:35;5.70;99.90
12436;DHT22;6282;51.440;6.938;2023-02-28T12:54:12;5.40;99.90
12436;DHT22;6282;51.440;6.938;2023-02-28T12:56:45;5.30;99.90
12436;DHT22;6282;51.440;6.938;2023-02-28T13:02:09;5.30;99.90
12436;DHT22;6282;51.440;6.938;2023-02-28T13:04:57;5.50;99.90
12436;DHT22;6282;51.440;6.938;2023-02-28T13:07:57;5.50;99.90
12436;DHT22;6282;51.440;6.938;2023-02-28T13:10:39;5.20;99.90
12436;DHT22;6282;51.440;6.938;2023-02-28T13:13:14;5.20;99.90
12436;DHT22;6282;51.440;6.938;2023-02-28T13:16:01;5.50;99.90
12436;DHT22;6282;51.440;6.938;2023-02-28T13:32:31;5.80;99.90
12436;DHT22;6282;51.440;6.938;2023-02-28T13:46:36;5.70;99.90
12436;DHT22;6282;51.440;6.938;2023-02-28T13:49:19;6.00;99.90
12436;DHT22;6282;51.440;6.938;2023-02-28T13:51:47;5.60;99.90
12436;DHT22;6282;51.440;6.938;2023-02-28T13:54:27;5.70;99.90
12436;DHT22;6282;51.440;6.938;2023-02-28T14:05:00;5.70;99.90
12436;DHT22;6282;51.440;6.938;2023-02-28T14:10:01;5.70;99.90
12436;DHT22;6282;51.440;6.938;2023-02-28T14:13:01;5.40;99.90
12436;DHT22;6282;51.440;6.938;2023-02-28T14:15:49;5.60;99.90
12436;DHT22;6282;51.440;6.938;2023-02-28T14:18:25;5.40;99.90
12436;DHT22;6282;51.440;6.938;2023-02-28T14:20:57;5.40;99.90
12436;DHT22;6282;51.440;6.938;2023-02-28T14:23:35;5.40;99.90
12436;DHT22;6282;51.440;6.938;2023-02-28T14:26:14;5.40;99.90
12436;DHT22;6282;51.440;6.938;2023-02-28T14:28:55;5.40;99.90
12436;DHT22;6282;51.440;6.938;2023-02-28T14:34:13;5.40;99.90
12436;DHT22;6282;51.440;6.938;2023-02-28T14:36:44;5.40;99.90
12436;DHT22;6282;51.440;6.938;2023-02-28T14:39:13;5.60;99.90
12436;DHT22;6282;51.440;6.938;2023-02-28T14:44:20;5.20;99.90
12436;DHT22;6282;51.440;6.938;2023-02-28T14:54:16;5.40;99.90
12436;DHT22;6282;51.440;6.938;2023-02-28T14:56:49;5.40;99.90
12436;DHT22;6282;51.440;6.938;2023-02-28T14:59:25;5.20;99.90
12436;DHT22;6282;51.440;6.938;2023-02-28T15:04:26;5.30;99.90
12436;DHT22;6282;51.440;6.938;2023-02-28T15:14:32;5.20;99.90
12436;DHT22;6282;51.440;6.938;2023-02-28T15:17:02;5.10;99.90
12436;DHT22;6282;51.440;6.938;2023-02-28T15:19:33;5.00;99.90
12436;DHT22;6282;51.440;6.938;2023-02-28T15:22:04;5.00;99.90
12436;DHT22;6282;51.440;6.938;2023-02-28T15:24:37;5.10;99.90
12436;DHT22;6282;51.440;6.938;2023-02-28T15:27:07;5.00;99.90
12436;DHT22;6282;51.440;6.938;2023-02-28T15:29:42;5.00;99.90
12436;DHT22;6282;51.440;6.938;2023-02-28T15:32:26;5.00;99.90
12436;DHT22;6282;51.440;6.938;2023-02-28T15:34:56;5.00;99.90
12436;DHT22;6282;51.440;6.938;2023-02-28T15:37:37;5.00;99.90
12436;DHT22;6282;51.440;6.938;2023-02-28T15:40:12;4.90;99.90
12436;DHT22;6282;51.440;6.938;2023-02-28T15:45:28;5.00;99.90
12436;DHT22;6282;51.440;6.938;2023-02-28T15:57:48;4.80;99.90
12436;DHT22;6282;51.440;6.938;2023-02-28T16:00:20;5.10;99.90
12436;DHT22;6282;51.440;6.938;2023-02-28T16:05:24;5.00;99.90
12436;DHT22;6282;51.440;6.938;2023-02-28T16:22:46;4.60;99.90
12436;DHT22;6282;51.440;6.938;2023-02-28T16:25:13;4.60;99.90
12436;DHT22;6282;51.440;6.938;2023-02-28T16:27:42;4.50;99.90
12436;DHT22;6282;51.440;6.938;2023-02-28T16:30:17;4.60;99.90
12436;DHT22;6282;51.440;6.938;2023-02-28T16:35:14;4.40;99.90
12436;DHT22;6282;51.440;6.938;2023-02-28T16:40:14;4.30;99.90
12436;DHT22;6282;51.440;6.938;2023-02-28T16:42:42;4.40;99.90
12436;DHT22;6282;51.440;6.938;2023-02-28T16:45:15;4.00;99.90
12436;DHT22;6282;51.440;6.938;2023-02-28T16:50:16;4.20;99.90
12436;DHT22;6282;51.440;6.938;2023-02-28T16:55:12;4.10;99.90
12436;DHT22;6282;51.440;6.938;2023-02-28T17:00:11;4.00;99.90
12436;DHT22;6282;51.440;6.938;2023-02-28T18:04:15;3.20;99.90
12436;DHT22;6282;51.440;6.938;2023-02-28T18:06:44;3.10;99.90
12436;DHT22;6282;51.440;6.938;2023-02-28T18:33:50;2.70;99.90
12436;DHT22;6282;51.440;6.938;2023-02-28T18:36:19;2.60;99.90
12436;DHT22;6282;51.440;6.938;2023-02-28T18:41:16;2.70;99.90
12436;DHT22;6282;51.440;6.938;2023-02-28T18:43:46;2.80;99.90
12436;DHT22;6282;51.440;6.938;2023-02-28T18:46:16;2.60;99.90
12436;DHT22;6282;51.440;6.938;2023-02-28T18:51:12;2.40;99.90
12436;DHT22;6282;51.440;6.938;2023-02-28T18:53:39;2.50;99.90
12436;DHT22;6282;51.440;6.938;2023-02-28T18:56:11;2.50;99.90
12436;DHT22;6282;51.440;6.938;2023-02-28T19:11:07;2.30;99.90
12436;DHT22;6282;51.440;6.938;2023-02-28T19:16:02;1.90;99.90
12436;DHT22;6282;51.440;6.938;2023-02-28T19:28:20;1.80;99.90
12436;DHT22;6282;51.440;6.938;2023-02-28T19:30:47;2.30;99.90
12436;DHT22;6282;51.440;6.938;2023-02-28T19:33:15;1.60;99.90
12436;DHT22;6282;51.440;6.938;2023-02-28T19:40:36;1.50;99.90
12436;DHT22;6282;51.440;6.938;2023-02-28T19:45:33;1.50;99.90
12436;DHT22;6282;51.440;6.938;2023-02-28T20:54:20;1.30;99.90
12436;DHT22;6282;51.440;6.938;2023-02-28T21:06:38;0.80;99.90
12436;DHT22;6282;51.440;6.938;2023-02-28T21:09:08;0.70;99.90
12436;DHT22;6282;51.440;6.938;2023-02-28T21:11:37;0.80;99.90
12436;DHT22;6282;51.440;6.938;2023-02-28T21:14:05;0.80;99.90
12436;DHT22;6282;51.440;6.938;2023-02-28T21:21:30;0.90;99.90
12436;DHT22;6282;51.440;6.938;2023-02-28T21:28:54;0.80;99.90
12436;DHT22;6282;51.440;6.938;2023-02-28T21:33:51;0.50;99.90
12436;DHT22;6282;51.440;6.938;2023-02-28T21:36:20;0.60;99.90
12436;DHT22;6282;51.440;6.938;2023-02-28T21:41:17;0.70;99.90
12436;DHT22;6282;51.440;6.938;2023-02-28T21:43:45;0.60;99.90
12436;DHT22;6282;51.440;6.938;2023-02-28T21:46:15;0.60;99.90
12436;DHT22;6282;51.440;6.938;2023-02-28T21:51:12;0.30;99.90
12436;DHT22;6282;51.440;6.938;2023-02-28T21:53:40;0.40;99.90
12436;DHT22;6282;51.440;6.938;2023-02-28T22:01:05;0.40;99.90
12436;DHT22;6282;51.440;6.938;2023-02-28T22:13:37;0.60;99.90
12436;DHT22;6282;51.440;6.938;2023-02-28T22:16:06;0.30;99.90
12436;DHT22;6282;51.440;6.938;2023-02-28T22:18:35;0.30;99.90
12436;DHT22;6282;51.440;6.938;2023-02-28T22:21:03;0.40;99.90
12436;DHT22;6282;51.440;6.938;2023-02-28T22:25:59;0.60;99.90
12436;DHT22;6282;51.440;6.938;2023-02-28T22:28:28;0.30;99.90
12436;DHT22;6282;51.440;6.938;2023-02-28T23:10:17;0.40;99.90
12436;DHT22;6282;51.440;6.938;2023-02-28T23:20:11;0.30;99.90
12436;DHT22;6282;51.440;6.938;2023-02-28T23:25:11;0.40;99.90
12436;DHT22;6282;51.440;6.938;2023-02-28T23:27:39;0.50;99.90
12436;DHT22;6282;51.440;6.938;2023-02-28T23:30:07;1.20;99.90
12436;DHT22;6282;51.440;6.938;2023-02-28T23:32:35;0.40;99.90
